createdAt,value
2022-11-28T00:01:41.693Z,16.05
2022-11-28T00:03:43.140Z,14.38
2022-11-28T00:05:47.111Z,17.60
2022-11-28T00:07:48.613Z,16.90
2022-11-28T00:09:50.059Z,18.35
2022-11-28T00:11:51.459Z,15.85
2022-11-28T00:13:52.903Z,15.93
2022-11-28T00:16:01.336Z,13.82
2022-11-28T00:18:03.996Z,15.55
2022-11-28T00:20:05.758Z,14.30
2022-11-28T00:22:07.036Z,15.73
2022-11-28T00:24:08.486Z,15.73
2022-11-28T00:26:14.563Z,15.70
2022-11-28T00:28:15.899Z,14.88
2022-11-28T00:30:17.315Z,14.48
2022-11-28T00:32:18.765Z,13.48
2022-11-28T00:34:20.159Z,14.15
2022-11-28T00:36:21.946Z,16.10
2022-11-28T00:38:23.555Z,16.67
2022-11-28T00:40:24.999Z,14.75
2022-11-28T00:42:26.346Z,15.55
2022-11-28T00:44:27.839Z,16.15
2022-11-28T00:46:29.682Z,14.38
2022-11-28T00:48:32.157Z,15.75
2022-11-28T00:50:33.420Z,15.65
2022-11-28T00:52:34.746Z,14.52
2022-11-28T00:54:36.153Z,14.70
2022-11-28T00:56:39.343Z,16.17
2022-11-28T00:58:41.361Z,14.88
2022-11-28T01:00:42.907Z,18.38
2022-11-28T01:02:44.290Z,15.10
2022-11-28T01:04:45.763Z,15.60
2022-11-28T01:06:48.537Z,13.93
2022-11-28T01:08:50.002Z,14.32
2022-11-28T01:10:51.421Z,15.00
2022-11-28T01:12:52.834Z,15.35
2022-11-28T01:14:54.174Z,13.90
2022-11-28T01:16:55.558Z,13.65
2022-11-28T01:18:57.035Z,13.50
2022-11-28T01:20:58.341Z,15.32
2022-11-28T01:22:59.611Z,14.25
2022-11-28T01:25:00.938Z,14.80
2022-11-28T01:27:02.250Z,16.88
2022-11-28T01:29:03.618Z,13.48
2022-11-28T01:31:05.947Z,14.00
2022-11-28T01:33:07.479Z,14.32
2022-11-28T01:35:09.036Z,15.05
2022-11-28T01:37:10.991Z,14.30
2022-11-28T01:39:12.574Z,13.40
2022-11-28T01:41:15.003Z,12.77
2022-11-28T01:43:16.679Z,13.18
2022-11-28T01:45:22.408Z,12.63
2022-11-28T01:47:27.464Z,12.70
2022-11-28T01:49:31.531Z,14.60
2022-11-28T01:51:33.457Z,15.63
2022-11-28T01:53:36.267Z,11.77
2022-11-28T01:55:40.006Z,14.43
2022-11-28T01:57:41.586Z,13.52
2022-11-28T01:59:46.517Z,15.70
2022-11-28T02:01:47.958Z,13.95
2022-11-28T02:03:50.338Z,13.57
2022-11-28T02:05:52.831Z,15.90
2022-11-28T02:07:54.357Z,14.43
2022-11-28T02:09:55.859Z,16.70
2022-11-28T02:12:09.826Z,15.38
2022-11-28T02:14:23.116Z,16.15
2022-11-28T02:16:27.393Z,16.48
2022-11-28T02:18:34.886Z,14.38
2022-11-28T02:20:54.716Z,14.57
2022-11-28T02:23:01.894Z,15.32
2022-11-28T02:25:13.693Z,14.88
2022-11-28T02:27:35.429Z,14.43
2022-11-28T02:29:55.093Z,15.38
2022-11-28T02:32:02.081Z,16.90
2022-11-28T02:34:07.685Z,14.73
2022-11-28T02:36:09.137Z,19.15
2022-11-28T02:38:29.603Z,16.17
2022-11-28T02:40:51.225Z,15.65
2022-11-28T02:42:55.434Z,15.10
2022-11-28T02:45:08.722Z,14.10
2022-11-28T02:47:17.956Z,14.85
2022-11-28T02:49:19.250Z,18.48
2022-11-28T02:51:31.790Z,18.08
2022-11-28T02:53:34.068Z,18.40
2022-11-28T02:55:38.844Z,16.83
2022-11-28T02:57:41.898Z,15.85
2022-11-28T02:59:43.227Z,17.23
2022-11-28T03:01:44.596Z,16.95
2022-11-28T03:03:51.860Z,16.75
2022-11-28T03:05:59.388Z,17.90
2022-11-28T03:08:17.080Z,17.20
2022-11-28T03:10:28.347Z,15.75
2022-11-28T03:12:41.576Z,15.70
2022-11-28T03:14:51.006Z,16.83
2022-11-28T03:17:01.082Z,16.75
2022-11-28T03:19:11.398Z,15.13
2022-11-28T03:21:12.727Z,17.88
2022-11-28T03:23:14.055Z,14.60
2022-11-28T03:25:33.567Z,14.20
2022-11-28T03:27:37.866Z,17.35
2022-11-28T03:29:41.742Z,16.73
2022-11-28T03:31:46.941Z,19.38
2022-11-28T03:33:51.059Z,17.45
2022-11-28T03:35:56.112Z,17.55
2022-11-28T03:38:00.857Z,16.23
2022-11-28T03:40:05.225Z,15.48
2022-11-28T03:42:11.225Z,18.77
2022-11-28T03:44:16.374Z,17.33
2022-11-28T03:46:20.267Z,16.92
2022-11-28T03:48:24.296Z,19.00
2022-11-28T03:50:37.894Z,15.93
2022-11-28T03:52:41.482Z,17.98
2022-11-28T03:54:51.436Z,17.38
2022-11-28T03:57:11.557Z,16.10
2022-11-28T03:59:20.263Z,19.37
2022-11-28T04:01:33.753Z,18.30
2022-11-28T04:03:42.406Z,16.50
2022-11-28T04:05:54.089Z,19.65
2022-11-28T04:08:13.993Z,17.00
2022-11-28T04:10:27.703Z,21.67
2022-11-28T04:12:31.595Z,16.80
2022-11-28T04:14:35.140Z,19.27
2022-11-28T04:16:36.540Z,18.83
2022-11-28T04:18:56.796Z,17.65
2022-11-28T04:21:10.234Z,20.45
2022-11-28T04:23:13.558Z,18.83
2022-11-28T04:25:16.245Z,19.02
2022-11-28T04:27:19.609Z,18.63
2022-11-28T04:29:23.412Z,18.15
2022-11-28T04:31:26.027Z,19.90
2022-11-28T04:33:29.199Z,18.63
2022-11-28T04:35:35.234Z,17.20
2022-11-28T04:37:38.444Z,19.75
2022-11-28T04:39:41.290Z,20.17
2022-11-28T04:41:52.619Z,17.38
2022-11-28T04:43:58.231Z,19.05
2022-11-28T04:46:02.152Z,20.33
2022-11-28T04:48:03.823Z,18.17
2022-11-28T04:50:05.585Z,19.27
2022-11-28T04:52:10.182Z,20.13
2022-11-28T04:54:17.828Z,19.48
2022-11-28T04:56:23.668Z,17.58
2022-11-28T04:58:28.543Z,18.17
2022-11-28T05:00:29.921Z,18.10
2022-11-28T05:02:31.996Z,16.80
2022-11-28T05:04:35.572Z,16.67
2022-11-28T05:06:36.905Z,17.85
2022-11-28T05:08:38.434Z,16.95
2022-11-28T05:10:39.775Z,18.20
2022-11-28T05:12:41.147Z,20.55
2022-11-28T05:14:42.699Z,17.88
2022-11-28T05:16:44.413Z,16.90
2022-11-28T05:18:45.871Z,17.70
2022-11-28T05:20:47.223Z,17.75
2022-11-28T05:22:48.512Z,19.60
2022-11-28T05:24:49.911Z,17.58
2022-11-28T05:26:51.371Z,18.95
2022-11-28T05:28:52.774Z,17.58
2022-11-28T05:30:58.146Z,17.45
2022-11-28T05:33:00.009Z,18.45
2022-11-28T05:35:01.365Z,20.35
2022-11-28T05:37:02.656Z,18.73
2022-11-28T05:39:04.013Z,17.65
2022-11-28T05:41:05.477Z,17.63
2022-11-28T05:43:06.816Z,18.80
2022-11-28T05:45:08.518Z,18.55
2022-11-28T05:47:09.945Z,16.67
2022-11-28T05:49:11.276Z,19.27
2022-11-28T05:51:12.580Z,16.90
2022-11-28T05:53:13.898Z,17.10
2022-11-28T05:55:15.445Z,17.63
2022-11-28T05:57:16.855Z,18.98
2022-11-28T05:59:18.214Z,18.52
2022-11-28T06:01:24.228Z,17.60
2022-11-28T06:03:25.534Z,20.52
2022-11-28T06:05:42.066Z,18.25
2022-11-28T06:07:44.491Z,18.38
2022-11-28T06:09:45.897Z,16.33
2022-11-28T06:11:47.282Z,17.25
2022-11-28T06:13:49.180Z,16.35
2022-11-28T06:15:50.691Z,18.38
2022-11-28T06:17:52.040Z,18.70
2022-11-28T06:19:53.360Z,17.80
2022-11-28T06:21:56.499Z,17.63
2022-11-28T06:23:58.480Z,18.58
2022-11-28T06:26:04.366Z,19.77
2022-11-28T06:28:05.813Z,16.40
2022-11-28T06:30:07.702Z,21.58
2022-11-28T06:32:09.163Z,15.73
2022-11-28T06:34:11.226Z,18.25
2022-11-28T06:36:13.184Z,19.52
2022-11-28T06:38:14.668Z,17.05
2022-11-28T06:40:16.130Z,17.65
2022-11-28T06:42:17.926Z,17.67
2022-11-28T06:44:19.243Z,19.58
2022-11-28T06:46:21.501Z,18.50
2022-11-28T06:48:23.513Z,15.80
2022-11-28T06:50:24.970Z,18.33
2022-11-28T06:52:26.539Z,17.95
2022-11-28T06:54:27.864Z,16.77
2022-11-28T06:56:29.294Z,19.17
2022-11-28T06:58:30.658Z,18.10
2022-11-28T07:00:32.821Z,19.30
2022-11-28T07:02:34.301Z,19.73
2022-11-28T07:04:35.845Z,19.20
2022-11-28T07:06:37.243Z,18.20
2022-11-28T07:08:38.751Z,20.70
2022-11-28T07:10:40.195Z,18.63
2022-11-28T07:12:41.662Z,17.27
2022-11-28T07:14:43.029Z,19.63
2022-11-28T07:16:44.413Z,17.63
2022-11-28T07:18:46.067Z,15.35
2022-11-28T07:20:47.486Z,15.82
2022-11-28T07:22:49.023Z,19.88
2022-11-28T07:24:50.645Z,20.35
2022-11-28T07:26:52.098Z,20.00
2022-11-28T07:28:53.469Z,20.10
2022-11-28T07:31:04.342Z,18.25
2022-11-28T07:35:08.704Z,17.80
2022-11-28T07:37:10.185Z,18.98
2022-11-28T07:39:13.545Z,18.27
2022-11-28T07:41:16.390Z,19.25
2022-11-28T07:43:17.815Z,18.55
2022-11-28T07:45:19.137Z,18.02
2022-11-28T07:47:20.622Z,18.17
2022-11-28T07:49:21.974Z,17.63
2022-11-28T07:51:26.727Z,20.98
2022-11-28T07:53:28.067Z,19.15
2022-11-28T07:55:29.519Z,17.20
2022-11-28T07:57:30.821Z,19.55
2022-11-28T07:59:32.189Z,17.98
2022-11-28T08:01:35.993Z,19.10
2022-11-28T08:03:37.824Z,20.90
2022-11-28T08:05:39.201Z,21.08
2022-11-28T08:07:40.587Z,19.13
2022-11-28T08:09:42.376Z,20.05
2022-11-28T08:11:43.841Z,19.05
2022-11-28T08:13:45.732Z,21.25
2022-11-28T08:15:47.182Z,19.52
2022-11-28T08:17:48.674Z,18.60
2022-11-28T08:19:50.076Z,20.23
2022-11-28T08:21:51.544Z,19.90
2022-11-28T08:23:54.014Z,22.02
2022-11-28T08:25:55.395Z,21.10
2022-11-28T08:27:56.950Z,20.15
2022-11-28T08:29:58.343Z,21.30
2022-11-28T08:31:59.761Z,18.05
2022-11-28T08:34:01.919Z,21.25
2022-11-28T08:36:10.453Z,22.05
2022-11-28T08:38:11.846Z,18.40
2022-11-28T08:40:13.755Z,19.13
2022-11-28T08:42:15.210Z,19.33
2022-11-28T08:44:16.579Z,21.27
2022-11-28T08:46:20.391Z,19.25
2022-11-28T08:48:21.762Z,19.20
2022-11-28T08:50:23.138Z,19.75
2022-11-28T08:52:27.112Z,21.52
2022-11-28T08:54:28.461Z,17.60
2022-11-28T08:56:30.451Z,21.58
2022-11-28T08:58:31.921Z,19.38
2022-11-28T09:00:33.699Z,21.17
2022-11-28T09:02:35.610Z,20.77
2022-11-28T09:04:37.358Z,20.95
2022-11-28T09:06:41.719Z,19.08
2022-11-28T09:08:43.585Z,18.95
2022-11-28T09:10:45.763Z,19.38
2022-11-28T09:12:47.068Z,19.83
2022-11-28T09:14:48.452Z,20.42
2022-11-28T09:16:50.377Z,18.98
2022-11-28T09:18:52.429Z,20.23
2022-11-28T09:20:57.582Z,19.23
2022-11-28T09:22:58.888Z,19.67
2022-11-28T09:25:03.910Z,19.35
2022-11-28T09:27:05.674Z,16.75
2022-11-28T09:29:07.227Z,23.30
2022-11-28T09:31:09.096Z,21.05
2022-11-28T09:33:12.309Z,17.30
2022-11-28T09:35:13.673Z,18.02
2022-11-28T09:37:15.006Z,19.83
2022-11-28T09:39:16.412Z,17.20
2022-11-28T09:41:33.856Z,18.55
2022-11-28T09:43:36.419Z,20.52
2022-11-28T09:45:37.942Z,18.42
2022-11-28T09:47:40.587Z,18.17
2022-11-28T09:49:46.458Z,18.15
2022-11-28T09:52:20.668Z,20.02
2022-11-28T09:54:24.573Z,20.50
2022-11-28T09:56:25.998Z,19.85
2022-11-28T09:58:45.991Z,19.38
2022-11-28T10:00:55.535Z,23.20
2022-11-28T10:02:57.262Z,19.00
2022-11-28T10:05:12.349Z,18.02
2022-11-28T10:07:23.051Z,19.42
2022-11-28T10:09:27.440Z,19.15
2022-11-28T10:11:37.961Z,19.17
2022-11-28T10:14:07.164Z,15.35
2022-11-28T10:16:09.805Z,20.27
2022-11-28T10:18:29.769Z,18.38
2022-11-28T10:20:32.802Z,19.88
2022-11-28T10:22:34.115Z,20.45
2022-11-28T10:24:38.703Z,18.88
2022-11-28T10:26:42.475Z,19.40
2022-11-28T10:28:46.278Z,19.30
2022-11-28T10:31:04.072Z,20.25
2022-11-28T10:33:11.148Z,20.02
2022-11-28T10:35:12.503Z,18.30
2022-11-28T10:37:19.878Z,22.73
2022-11-28T10:39:21.386Z,19.70
2022-11-28T10:41:32.436Z,18.83
2022-11-28T10:43:47.091Z,19.67
2022-11-28T10:46:07.258Z,21.60
2022-11-28T10:50:41.053Z,20.40
2022-11-28T10:53:02.446Z,18.73
2022-11-28T10:55:22.497Z,18.48
2022-11-28T10:57:34.420Z,21.13
2022-11-28T10:59:56.049Z,19.73
2022-11-28T11:01:57.699Z,22.10
2022-11-28T11:03:59.311Z,19.80
2022-11-28T11:06:00.668Z,16.40
2022-11-28T11:08:02.042Z,19.40
2022-11-28T11:10:16.756Z,19.38
2022-11-28T11:12:27.936Z,20.55
2022-11-28T11:14:36.366Z,19.73
2022-11-28T11:16:46.847Z,18.65
2022-11-28T11:18:48.272Z,21.15
2022-11-28T11:20:49.785Z,19.52
2022-11-28T11:22:58.097Z,18.80
2022-11-28T11:25:16.284Z,18.80
2022-11-28T11:27:21.005Z,19.90
2022-11-28T11:29:28.189Z,20.38
2022-11-28T11:31:33.953Z,18.90
2022-11-28T11:33:36.783Z,19.13
2022-11-28T11:35:43.011Z,18.67
2022-11-28T11:37:44.465Z,19.17
2022-11-28T11:39:52.544Z,20.38
2022-11-28T11:41:59.520Z,17.23
2022-11-28T11:44:16.048Z,16.70
2022-11-28T11:46:17.493Z,17.05
2022-11-28T11:48:34.111Z,15.13
2022-11-28T11:50:36.797Z,16.35
2022-11-28T11:52:38.195Z,15.55
2022-11-28T11:54:54.653Z,14.88
2022-11-28T11:57:25.099Z,17.17
2022-11-28T11:59:20.239Z,18.10
2022-11-28T12:01:22.170Z,18.15
2022-11-28T12:03:49.302Z,17.08
2022-11-28T12:08:32.981Z,15.70
2022-11-28T12:10:35.588Z,17.45
2022-11-28T12:12:37.256Z,16.08
2022-11-28T12:14:39.638Z,16.40
2022-11-28T12:16:41.317Z,14.90
2022-11-28T12:19:01.371Z,14.88
2022-11-28T12:21:18.330Z,18.20
2022-11-28T12:23:28.675Z,17.08
2022-11-28T12:25:50.167Z,16.20
2022-11-28T12:28:13.432Z,16.90
2022-11-28T12:30:14.927Z,15.65
2022-11-28T12:32:25.183Z,14.80
2022-11-28T12:34:35.470Z,15.95
2022-11-28T12:36:39.630Z,16.70
2022-11-28T12:38:57.359Z,18.25
2022-11-28T12:41:11.072Z,14.93
2022-11-28T12:43:12.459Z,16.90
2022-11-28T12:45:20.291Z,16.45
2022-11-28T12:47:48.145Z,17.35
2022-11-28T12:50:01.473Z,13.85
2022-11-28T12:52:13.008Z,14.85
2022-11-28T12:54:14.357Z,17.55
2022-11-28T12:56:30.451Z,13.45
2022-11-28T12:58:43.746Z,15.30
2022-11-28T13:00:54.144Z,15.18
2022-11-28T13:03:13.651Z,14.45
2022-11-28T13:05:19.932Z,17.65
2022-11-28T13:07:21.312Z,15.52
2022-11-28T13:09:33.691Z,17.55
2022-11-28T13:11:41.252Z,14.05
2022-11-28T13:13:46.723Z,15.02
2022-11-28T13:16:06.485Z,15.85
2022-11-28T13:18:16.920Z,15.38
2022-11-28T13:20:18.245Z,17.55
2022-11-28T13:22:29.096Z,11.13
2022-11-28T13:26:50.434Z,15.13
2022-11-28T13:28:58.845Z,14.27
2022-11-28T13:31:11.198Z,13.27
2022-11-28T13:33:27.685Z,15.20
2022-11-28T13:35:29.647Z,13.98
2022-11-28T13:40:36.603Z,18.33
2022-11-28T13:45:07.472Z,14.07
2022-11-28T13:47:27.761Z,16.77
2022-11-28T13:49:29.676Z,17.17
2022-11-28T13:51:32.938Z,14.98
2022-11-28T13:53:34.653Z,16.10
2022-11-28T13:55:36.006Z,15.45
2022-11-28T13:57:38.426Z,16.27
2022-11-28T13:59:39.807Z,13.75
2022-11-28T14:01:48.413Z,19.00
2022-11-28T14:03:52.134Z,16.00
2022-11-28T14:05:56.466Z,17.88
2022-11-28T14:07:58.071Z,20.70
2022-11-28T14:10:10.149Z,16.73
2022-11-28T14:12:11.494Z,17.75
2022-11-28T14:14:31.368Z,17.63
2022-11-28T14:16:35.588Z,18.35
2022-11-28T14:19:09.299Z,18.40
2022-11-28T14:21:16.692Z,19.67
2022-11-28T14:23:37.344Z,16.52
2022-11-28T14:25:41.187Z,21.23
2022-11-28T14:27:48.661Z,16.90
2022-11-28T14:29:51.763Z,19.05
2022-11-28T14:32:21.593Z,21.25
2022-11-28T14:34:33.958Z,18.30
2022-11-28T14:36:37.626Z,18.13
2022-11-28T14:38:38.978Z,17.83
2022-11-28T14:41:03.368Z,20.27
2022-11-28T14:43:23.132Z,16.80
2022-11-28T14:45:41.432Z,17.10
2022-11-28T14:48:02.815Z,18.20
2022-11-28T14:50:07.116Z,18.70
2022-11-28T14:52:37.123Z,17.60
2022-11-28T14:54:42.006Z,17.50
2022-11-28T14:56:43.771Z,14.10
2022-11-28T14:58:49.632Z,19.02
2022-11-28T15:00:54.947Z,18.33
2022-11-28T15:03:23.443Z,16.02
2022-11-28T15:05:43.405Z,16.15
2022-11-28T15:07:51.069Z,15.27
2022-11-28T15:10:18.822Z,19.08
2022-11-28T15:12:22.845Z,16.48
2022-11-28T15:14:25.930Z,18.10
2022-11-28T15:16:30.321Z,20.42
2022-11-28T15:18:32.713Z,19.40
2022-11-28T15:20:40.910Z,17.15
2022-11-28T15:22:43.435Z,19.05
2022-11-28T15:24:51.576Z,20.48
2022-11-28T15:27:08.040Z,18.88
2022-11-28T15:29:29.688Z,17.38
2022-11-28T15:31:31.171Z,17.65
2022-11-28T15:33:33.604Z,20.75
2022-11-28T15:35:35.016Z,18.13
2022-11-28T15:37:36.426Z,18.52
2022-11-28T15:39:40.018Z,19.05
2022-11-28T15:41:45.493Z,17.58
2022-11-28T15:43:47.024Z,20.33
2022-11-28T15:45:58.742Z,20.23
2022-11-28T15:48:00.136Z,19.42
2022-11-28T15:50:13.536Z,20.92
2022-11-28T15:52:17.459Z,19.15
2022-11-28T15:54:42.067Z,18.65
2022-11-28T15:56:55.987Z,21.48
2022-11-28T15:58:57.325Z,19.80
2022-11-28T16:01:01.556Z,18.45
2022-11-28T16:03:03.639Z,20.92
2022-11-28T16:05:07.111Z,20.45
2022-11-28T16:07:13.294Z,19.45
2022-11-28T16:09:17.369Z,19.02
2022-11-28T16:11:19.880Z,21.38
2022-11-28T16:13:22.101Z,21.38
2022-11-28T16:15:26.658Z,20.35
2022-11-28T16:17:29.803Z,17.55
2022-11-28T16:19:35.320Z,24.38
2022-11-28T16:21:50.696Z,21.15
2022-11-28T16:23:52.314Z,20.55
2022-11-28T16:26:04.287Z,21.85
2022-11-28T16:28:25.618Z,18.80
2022-11-28T16:30:36.719Z,16.55
2022-11-28T16:32:38.970Z,17.05
2022-11-28T16:34:44.057Z,18.00
2022-11-28T16:36:47.541Z,15.27
2022-11-28T16:38:50.357Z,20.40
2022-11-28T16:40:58.791Z,20.58
2022-11-28T16:43:02.969Z,18.00
2022-11-28T16:45:19.111Z,18.98
2022-11-28T16:47:27.240Z,18.13
2022-11-28T16:49:37.800Z,20.88
2022-11-28T16:51:40.308Z,16.50
2022-11-28T16:53:41.724Z,17.67
2022-11-28T16:55:44.672Z,15.43
2022-11-28T16:57:48.486Z,16.85
2022-11-28T16:59:52.717Z,17.08
2022-11-28T17:01:54.271Z,17.77
2022-11-28T17:03:57.304Z,12.43
2022-11-28T17:05:58.657Z,9.90
2022-11-28T17:08:01.811Z,6.65
2022-11-28T17:10:03.264Z,5.97
2022-11-28T17:12:07.031Z,6.63
2022-11-28T17:14:13.490Z,3.40
2022-11-28T17:16:20.136Z,3.88
2022-11-28T17:18:21.595Z,1.30
2022-11-28T17:20:23.002Z,1.63
2022-11-28T17:22:25.622Z,2.17
2022-11-28T17:24:28.646Z,2.22
2022-11-28T17:26:30.104Z,1.50
2022-11-28T17:28:31.573Z,1.48
2022-11-28T17:30:33.036Z,1.50
2022-11-28T17:32:34.867Z,1.35
2022-11-28T17:34:36.338Z,0.80
2022-11-28T17:36:37.947Z,1.17
2022-11-28T17:38:39.390Z,1.65
2022-11-28T17:40:42.366Z,1.02
2022-11-28T17:42:43.712Z,1.40
2022-11-28T17:44:45.493Z,1.67
2022-11-28T17:46:47.537Z,0.60
2022-11-28T17:48:49.135Z,1.23
2022-11-28T17:50:51.075Z,1.38
2022-11-28T17:52:52.521Z,0.50
2022-11-28T17:55:00.944Z,0.88
2022-11-28T17:57:09.529Z,2.70
2022-11-28T17:59:11.837Z,1.65
2022-11-28T18:01:16.520Z,1.13
2022-11-28T18:03:18.030Z,1.42
2022-11-28T18:05:19.556Z,1.70
2022-11-28T18:07:21.082Z,1.58
2022-11-28T18:09:22.742Z,1.30
2022-11-28T18:11:24.082Z,1.17
2022-11-28T18:13:25.559Z,1.40
2022-11-28T18:15:27.954Z,1.20
2022-11-28T18:17:29.443Z,1.20
2022-11-28T18:19:30.853Z,2.03
2022-11-28T18:21:32.526Z,0.65
2022-11-28T18:23:34.094Z,1.20
2022-11-28T18:25:35.569Z,1.52
2022-11-28T18:27:36.885Z,0.85
2022-11-28T18:29:38.667Z,0.70
2022-11-28T18:31:40.214Z,1.20
2022-11-28T18:33:41.650Z,0.55
2022-11-28T18:35:43.275Z,2.13
2022-11-28T18:37:44.669Z,1.58
2022-11-28T18:39:46.253Z,1.38
2022-11-28T18:41:47.992Z,1.00
2022-11-28T18:43:49.414Z,1.58
2022-11-28T18:45:51.434Z,2.15
2022-11-28T18:47:57.192Z,1.67
2022-11-28T18:50:01.431Z,1.13
2022-11-28T18:52:02.849Z,1.02
2022-11-28T18:54:05.159Z,0.88
2022-11-28T18:56:06.577Z,1.95
2022-11-28T18:58:08.141Z,1.98
2022-11-28T19:00:09.958Z,2.38
2022-11-28T19:02:14.381Z,1.85
2022-11-28T19:04:16.809Z,1.17
2022-11-28T19:06:18.544Z,1.55
2022-11-28T19:08:19.902Z,1.40
2022-11-28T19:10:21.460Z,1.77
2022-11-28T19:12:23.090Z,1.95
2022-11-28T19:14:24.489Z,2.15
2022-11-28T19:16:27.434Z,2.45
2022-11-28T19:18:28.843Z,2.10
2022-11-28T19:20:30.236Z,2.22
2022-11-28T19:22:31.626Z,2.70
2022-11-28T19:24:33.089Z,1.48
2022-11-28T19:26:35.132Z,2.42
2022-11-28T19:28:37.142Z,4.72
2022-11-28T19:30:38.524Z,2.63
2022-11-28T19:32:39.927Z,2.20
2022-11-28T19:34:41.393Z,3.35
2022-11-28T19:36:44.472Z,3.13
2022-11-28T19:38:45.923Z,2.55
2022-11-28T19:40:47.239Z,2.75
2022-11-28T19:42:48.796Z,2.10
2022-11-28T19:44:50.344Z,2.75
2022-11-28T19:46:53.261Z,3.22
2022-11-28T19:48:54.685Z,2.35
2022-11-28T19:50:56.264Z,2.03
2022-11-28T19:52:57.720Z,1.50
2022-11-28T19:54:59.314Z,3.10
2022-11-28T19:57:00.869Z,1.77
2022-11-28T19:59:02.311Z,2.65
2022-11-28T20:01:14.628Z,3.63
2022-11-28T20:03:16.330Z,4.13
2022-11-28T20:05:17.983Z,2.00
2022-11-28T20:07:19.459Z,2.28
2022-11-28T20:09:20.977Z,6.28
2022-11-28T20:11:23.548Z,4.45
2022-11-28T20:13:27.795Z,3.05
2022-11-28T20:15:29.191Z,2.15
2022-11-28T20:17:30.600Z,2.17
2022-11-28T20:19:32.181Z,1.92
2022-11-28T20:21:33.621Z,2.88
2022-11-28T20:23:39.043Z,3.33
2022-11-28T20:25:40.445Z,2.28
2022-11-28T20:27:41.861Z,1.45
2022-11-28T20:29:43.565Z,1.73
2022-11-28T20:31:46.142Z,2.10
2022-11-28T20:33:48.291Z,2.85
2022-11-28T20:35:49.665Z,2.47
2022-11-28T20:37:51.070Z,1.92
2022-11-28T20:39:53.584Z,2.75
2022-11-28T20:41:55.041Z,4.32
2022-11-28T20:43:56.945Z,3.95
2022-11-28T20:46:05.365Z,2.40
2022-11-28T20:48:06.791Z,1.65
2022-11-28T20:50:08.420Z,1.77
2022-11-28T20:52:09.814Z,4.38
2022-11-28T20:54:12.057Z,1.35
2022-11-28T20:56:16.455Z,1.52
2022-11-28T20:58:17.798Z,2.35
2022-11-28T21:00:24.941Z,2.10
2022-11-28T21:02:28.040Z,1.60
2022-11-28T21:04:29.492Z,1.30
2022-11-28T21:06:31.127Z,4.00
2022-11-28T21:08:33.771Z,2.78
2022-11-28T21:10:35.073Z,2.13
2022-11-28T21:12:36.413Z,2.38
2022-11-28T21:14:37.782Z,2.08
2022-11-28T21:16:39.287Z,2.28
2022-11-28T21:18:41.658Z,3.38
2022-11-28T21:20:45.459Z,3.58
2022-11-28T21:22:46.759Z,1.83
2022-11-28T21:24:50.509Z,3.67
2022-11-28T21:26:54.466Z,2.88
2022-11-28T21:28:56.989Z,4.70
2022-11-28T21:30:58.384Z,7.38
2022-11-28T21:33:00.119Z,5.32
2022-11-28T21:35:04.511Z,5.35
2022-11-28T21:37:06.066Z,3.35
2022-11-28T21:39:07.567Z,5.45
2022-11-28T21:41:09.094Z,3.97
2022-11-28T21:43:10.448Z,4.13
2022-11-28T21:45:11.789Z,3.92
2022-11-28T21:47:13.164Z,4.75
2022-11-28T21:49:14.525Z,4.55
2022-11-28T21:51:16.719Z,5.10
2022-11-28T21:53:18.081Z,3.08
2022-11-28T21:55:19.550Z,4.22
2022-11-28T21:57:20.937Z,5.50
2022-11-28T21:59:22.396Z,4.22
2022-11-28T22:01:23.812Z,6.85
2022-11-28T22:03:25.724Z,6.47
2022-11-28T22:05:27.523Z,4.38
2022-11-28T22:07:28.878Z,4.35
2022-11-28T22:09:30.276Z,5.15
2022-11-28T22:11:31.536Z,5.50
2022-11-28T22:13:33.263Z,6.28
2022-11-28T22:15:34.590Z,3.90
2022-11-28T22:17:36.099Z,5.38
2022-11-28T22:19:37.594Z,6.13
2022-11-28T22:21:56.392Z,6.38
2022-11-28T22:23:58.281Z,9.02
2022-11-28T22:25:59.682Z,4.65
2022-11-28T22:28:01.360Z,3.97
2022-11-28T22:30:02.720Z,6.68
2022-11-28T22:32:04.497Z,5.40
2022-11-28T22:34:05.950Z,5.68
2022-11-28T22:36:09.991Z,7.00
2022-11-28T22:38:11.897Z,7.78
2022-11-28T22:40:13.700Z,5.03
2022-11-28T22:42:15.086Z,4.28
2022-11-28T22:44:16.519Z,6.15
2022-11-28T22:46:17.963Z,5.75
2022-11-28T22:48:19.320Z,5.50
2022-11-28T22:50:20.674Z,6.97
2022-11-28T22:52:21.955Z,8.63
2022-11-28T22:54:23.319Z,7.97
2022-11-28T22:56:24.814Z,6.70
2022-11-28T22:58:26.132Z,8.13
2022-11-28T23:00:27.477Z,7.18
2022-11-28T23:02:28.904Z,5.65
2022-11-28T23:04:30.279Z,5.88
2022-11-28T23:06:32.837Z,4.93
2022-11-28T23:08:35.004Z,5.20
2022-11-28T23:10:36.973Z,5.60
2022-11-28T23:12:38.562Z,9.32
2022-11-28T23:14:39.901Z,5.90
2022-11-28T23:16:42.266Z,6.82
2022-11-28T23:18:44.391Z,4.57
2022-11-28T23:20:45.813Z,5.15
2022-11-28T23:22:47.153Z,3.10
2022-11-28T23:24:48.486Z,6.22
2022-11-28T23:26:50.482Z,5.13
2022-11-28T23:28:51.879Z,6.95
2022-11-28T23:30:53.254Z,5.32
2022-11-28T23:32:54.673Z,4.60
2022-11-28T23:34:55.998Z,5.03
2022-11-28T23:36:57.358Z,6.05
2022-11-28T23:39:00.085Z,4.45
2022-11-28T23:41:01.405Z,4.38
2022-11-28T23:43:02.748Z,4.55
2022-11-28T23:45:04.563Z,5.85
2022-11-28T23:47:05.869Z,4.45
2022-11-28T23:49:07.425Z,8.88
2022-11-28T23:51:08.758Z,4.75
2022-11-28T23:53:10.267Z,5.28
2022-11-28T23:55:11.591Z,6.50
2022-11-28T23:57:12.908Z,6.70
2022-11-28T23:59:14.355Z,3.95
